Time;durP1;ratioP1;P1;durP2;ratioP2;P2;SDS_P1;SDS_P2;PMS_P1;PMS_P2;Temp;Humidity;BMP_temperature;BMP_pressure;BME280_temperature;BME280_humidity;BME280_pressure;Samples;Min_cycle;Max_cycle;Signal;HPM_P1;HPM_P2
2022/08/21 00:00:10;;;;;;;;;;;;;;;26.12;nan;100949.81;5074345;28;1148;-40
2022/08/21 00:02:43;;;;;;;;;;;;;;;26.13;nan;100946.19;5073666;28;1303;-40
2022/08/21 00:05:10;;;;;;;;;;;;;;;26.15;nan;100951.38;5074900;28;1085;-40
2022/08/21 00:07:37;;;;;;;;;;;;;;;26.16;nan;100940.63;5074326;28;1976;-40
2022/08/21 00:10:04;;;;;;;;;;;;;;;26.19;nan;100950.19;5074679;28;1146;-45
2022/08/21 00:12:31;;;;;;;;;;;;;;;26.15;nan;100949.59;5072981;28;1557;-40
2022/08/21 00:14:58;;;;;;;;;;;;;;;26.14;nan;100947.88;5072840;28;1134;-41
2022/08/21 00:17:25;;;;;;;;;;;;;;;26.17;nan;100953.00;5071915;28;1189;-40
2022/08/21 00:19:52;;;;;;;;;;;;;;;26.17;nan;100936.13;5073023;28;1008;-42
2022/08/21 00:22:18;;;;;;;;;;;;;;;26.19;nan;100940.34;5072935;28;1240;-39
2022/08/21 00:24:45;;;;;;;;;;;;;;;26.14;nan;100947.88;5072396;28;1082;-40
2022/08/21 00:27:12;;;;;;;;;;;;;;;26.17;nan;100944.13;5071721;28;1358;-40
2022/08/21 00:29:38;;;;;;;;;;;;;;;26.17;nan;100947.66;5070222;28;1977;-42
2022/08/21 00:32:05;;;;;;;;;;;;;;;26.18;nan;100940.47;5067740;28;1321;-41
2022/08/21 00:34:32;;;;;;;;;;;;;;;26.17;nan;100936.97;5067465;28;1247;-40
2022/08/21 00:36:58;;;;;;;;;;;;;;;26.17;nan;100944.13;5067141;28;1312;-38
2022/08/21 00:39:25;;;;;;;;;;;;;;;26.16;nan;100948.63;5068912;28;1539;-39
2022/08/21 00:41:52;;;;;;;;;;;;;;;26.17;nan;100944.97;5072200;28;1175;-38
2022/08/21 00:44:19;;;;;;;;;;;;;;;26.16;nan;100942.44;5067043;28;1345;-42
2022/08/21 00:46:46;;;;;;;;;;;;;;;26.14;nan;100934.53;5061777;28;1273;-44
2022/08/21 00:49:13;;;;;;;;;;;;;;;26.13;nan;100938.16;5068929;28;1985;-42
2022/08/21 00:51:48;;;;;;;;;;;;;;;26.11;nan;100934.78;5064034;28;1246;-43
2022/08/21 00:54:16;;;;;;;;;;;;;;;26.18;nan;100927.13;5071120;28;1359;-40
2022/08/21 00:56:45;;;;;;;;;;;;;;;26.16;nan;100927.25;5063883;28;1521;-40
2022/08/21 00:59:13;;;;;;;;;;;;;;;26.13;nan;100930.16;5066641;28;1225;-40
2022/08/21 01:01:39;;;;;;;;;;;;;;;26.15;nan;100930.00;5063695;28;1287;-40
2022/08/21 01:04:06;;;;;;;;;;;;;;;26.18;nan;100932.44;5065996;28;1254;-41
2022/08/21 01:06:33;;;;;;;;;;;;;;;26.19;nan;100934.16;5065251;28;1226;-42
2022/08/21 01:09:00;;;;;;;;;;;;;;;26.18;nan;100921.78;5061980;28;1917;-40
2022/08/21 01:11:26;;;;;;;;;;;;;;;26.15;nan;100927.34;5065499;28;1254;-44
2022/08/21 01:13:54;;;;;;;;;;;;;;;26.14;nan;100926.53;5066364;28;1684;-41
2022/08/21 01:16:21;;;;;;;;;;;;;;;26.09;nan;100929.56;5068572;28;1337;-41
2022/08/21 01:18:49;;;;;;;;;;;;;;;26.09;nan;100929.56;5059525;28;1331;-40
2022/08/21 01:21:17;;;;;;;;;;;;;;;26.12;nan;100927.59;5060041;28;1254;-40
2022/08/21 01:23:46;;;;;;;;;;;;;;;26.07;nan;100928.88;5066651;28;1339;-41
2022/08/21 01:26:15;;;;;;;;;;;;;;;26.08;nan;100917.19;5068270;28;1340;-41
2022/08/21 01:28:45;;;;;;;;;;;;;;;26.12;nan;100911.59;5061710;28;1907;-39
2022/08/21 01:31:13;;;;;;;;;;;;;;;26.14;nan;100910.50;5064367;28;1247;-41
2022/08/21 01:33:40;;;;;;;;;;;;;;;26.10;nan;100911.72;5067954;28;1272;-40
2022/08/21 01:36:07;;;;;;;;;;;;;;;26.15;nan;100916.66;5063005;28;1250;-41
2022/08/21 01:38:33;;;;;;;;;;;;;;;26.13;nan;100919.47;5063213;28;1264;-39
2022/08/21 01:41:00;;;;;;;;;;;;;;;26.11;nan;100909.91;5063905;28;1517;-39
2022/08/21 01:43:27;;;;;;;;;;;;;;;26.06;nan;100912.97;5068739;28;1309;-41
2022/08/21 01:46:00;;;;;;;;;;;;;;;26.08;nan;100911.03;5063042;28;1136;-40
2022/08/21 01:48:27;;;;;;;;;;;;;;;26.01;nan;100912.53;5065187;28;1909;-40
2022/08/21 01:50:53;;;;;;;;;;;;;;;26.00;nan;100910.81;5068942;28;1152;-39
2022/08/21 01:53:22;;;;;;;;;;;;;;;26.00;nan;100908.16;5068591;28;1342;-45
2022/08/21 01:55:53;;;;;;;;;;;;;;;25.99;nan;100906.47;5063901;28;1148;-39
2022/08/21 01:58:20;;;;;;;;;;;;;;;26.00;nan;100903.66;5064351;28;1335;-44
2022/08/21 02:00:47;;;;;;;;;;;;;;;25.97;nan;100895.91;5062988;28;1297;-40
2022/08/21 02:03:14;;;;;;;;;;;;;;;25.95;nan;100892.53;5064173;28;1321;-40
2022/08/21 02:05:40;;;;;;;;;;;;;;;25.94;nan;100888.16;5065003;28;1202;-41
2022/08/21 02:08:07;;;;;;;;;;;;;;;25.98;nan;100889.59;5060602;28;1975;-41
2022/08/21 02:10:34;;;;;;;;;;;;;;;26.02;nan;100884.88;5063693;28;1266;-40
2022/08/21 02:13:01;;;;;;;;;;;;;;;26.02;nan;100888.34;5060927;28;1670;-40
2022/08/21 02:15:28;;;;;;;;;;;;;;;25.99;nan;100882.44;5063141;28;1265;-40
2022/08/21 02:17:57;;;;;;;;;;;;;;;25.98;nan;100886.09;5061453;28;1327;-40
2022/08/21 02:20:29;;;;;;;;;;;;;;;25.98;nan;100886.94;5060792;28;1278;-42
2022/08/21 02:22:56;;;;;;;;;;;;;;;25.99;nan;100877.13;5061365;28;1342;-40
2022/08/21 02:25:24;;;;;;;;;;;;;;;25.96;nan;100880.03;5072848;28;1269;-39
2022/08/21 02:27:51;;;;;;;;;;;;;;;25.98;nan;100883.41;5075702;28;1192;-42
2022/08/21 02:30:20;;;;;;;;;;;;;;;25.99;nan;100879.78;5076168;28;1906;-40
2022/08/21 02:32:47;;;;;;;;;;;;;;;25.98;nan;100881.59;5075874;28;1180;-40
2022/08/21 02:35:14;;;;;;;;;;;;;;;25.99;nan;100869.94;5075889;28;1496;-41
2022/08/21 02:37:59;;;;;;;;;;;;;;;25.96;nan;100877.38;5075696;28;1185;-39
2022/08/21 02:40:28;;;;;;;;;;;;;;;26.00;nan;100878.78;5076153;28;1058;-40
2022/08/21 02:42:55;;;;;;;;;;;;;;;26.01;nan;100867.16;5075555;28;1264;-39
2022/08/21 02:45:22;;;;;;;;;;;;;;;26.02;nan;100863.50;5075814;28;1047;-39
2022/08/21 02:47:50;;;;;;;;;;;;;;;26.00;nan;100862.78;5075328;28;1256;-40
2022/08/21 02:50:20;;;;;;;;;;;;;;;25.99;nan;100861.91;5075973;28;1910;-39
2022/08/21 02:52:47;;;;;;;;;;;;;;;25.94;nan;100861.47;5075752;28;1181;-39
2022/08/21 02:55:14;;;;;;;;;;;;;;;25.95;nan;100870.34;5075809;28;1056;-40
2022/08/21 02:57:40;;;;;;;;;;;;;;;25.90;nan;100860.03;5075554;28;1296;-41
2022/08/21 03:00:08;;;;;;;;;;;;;;;25.96;nan;100864.03;5076524;28;908;-41
2022/08/21 03:02:35;;;;;;;;;;;;;;;25.96;nan;100859.50;5076291;28;1121;-39
2022/08/21 03:05:03;;;;;;;;;;;;;;;25.91;nan;100855.56;5076398;28;1021;-39
2022/08/21 03:07:30;;;;;;;;;;;;;;;25.86;nan;100855.09;5076140;28;1291;-43
2022/08/21 03:09:56;;;;;;;;;;;;;;;25.91;nan;100851.06;5076336;28;1927;-41
2022/08/21 03:12:24;;;;;;;;;;;;;;;25.91;nan;100850.22;5075929;28;1462;-41
2022/08/21 03:14:53;;;;;;;;;;;;;;;25.92;nan;100846.56;5076288;28;1090;-39
2022/08/21 03:17:19;;;;;;;;;;;;;;;25.92;nan;100844.75;5075988;28;1180;-40
2022/08/21 03:19:56;;;;;;;;;;;;;;;25.81;nan;100849.28;5075047;28;1092;-41
2022/08/21 03:22:23;;;;;;;;;;;;;;;25.87;nan;100843.47;5075889;28;1196;-41
2022/08/21 03:24:49;;;;;;;;;;;;;;;25.91;nan;100839.53;5076123;28;923;-41
2022/08/21 03:27:16;;;;;;;;;;;;;;;25.92;nan;100835.91;5075993;28;1203;-40
2022/08/21 03:29:43;;;;;;;;;;;;;;;25.86;nan;100836.44;5075966;28;1989;-40
2022/08/21 03:32:09;;;;;;;;;;;;;;;25.88;nan;100831.78;5075695;28;910;-40
2022/08/21 03:34:37;;;;;;;;;;;;;;;25.90;nan;100835.19;5075987;28;1115;-41
2022/08/21 03:37:05;;;;;;;;;;;;;;;25.85;nan;100830.25;5074983;28;927;-39
2022/08/21 03:39:32;;;;;;;;;;;;;;;25.87;nan;100835.47;5075686;28;1291;-39
2022/08/21 03:41:59;;;;;;;;;;;;;;;25.95;nan;100831.16;5075442;28;1080;-39
2022/08/21 03:44:28;;;;;;;;;;;;;;;25.94;nan;100832.13;5075543;28;1311;-40
2022/08/21 03:46:55;;;;;;;;;;;;;;;25.98;nan;100835.38;5075497;28;1210;-37
2022/08/21 03:49:22;;;;;;;;;;;;;;;26.00;nan;100839.59;5075311;28;1910;-39
2022/08/21 03:51:48;;;;;;;;;;;;;;;26.00;nan;100839.59;5075931;28;948;-39
2022/08/21 03:54:15;;;;;;;;;;;;;;;25.96;nan;100840.81;5075470;28;1189;-39
2022/08/21 03:56:42;;;;;;;;;;;;;;;25.88;nan;100845.13;5075566;28;788;-39
2022/08/21 03:59:09;;;;;;;;;;;;;;;25.95;nan;100847.16;5075125;28;1169;-39
2022/08/21 04:01:36;;;;;;;;;;;;;;;26.00;nan;100849.44;5075289;28;1543;-39
2022/08/21 04:04:03;;;;;;;;;;;;;;;25.96;nan;100842.69;5075129;28;1211;-40
2022/08/21 04:06:30;;;;;;;;;;;;;;;25.89;nan;100845.03;5075341;28;854;-39
2022/08/21 04:09:01;;;;;;;;;;;;;;;25.86;nan;100855.97;5075119;28;1979;-39
2022/08/21 04:11:28;;;;;;;;;;;;;;;25.85;nan;100840.91;5075373;28;882;-40
2022/08/21 04:13:54;;;;;;;;;;;;;;;25.91;nan;100844.88;5075109;28;1371;-40
2022/08/21 04:16:21;;;;;;;;;;;;;;;25.90;nan;100837.88;5075073;28;804;-40
2022/08/21 04:18:48;;;;;;;;;;;;;;;25.87;nan;100844.28;5073848;28;1232;-43
2022/08/21 04:21:14;;;;;;;;;;;;;;;25.88;nan;100845.13;5075162;28;826;-41
2022/08/21 04:23:41;;;;;;;;;;;;;;;25.90;nan;100845.88;5075078;28;1292;-44
2022/08/21 04:26:08;;;;;;;;;;;;;;;25.89;nan;100837.00;5074703;28;749;-42
2022/08/21 04:28:35;;;;;;;;;;;;;;;25.94;nan;100844.63;5074951;28;1905;-41
2022/08/21 04:31:01;;;;;;;;;;;;;;;25.99;nan;100850.44;5074734;28;828;-41
2022/08/21 04:33:29;;;;;;;;;;;;;;;26.00;nan;100844.94;5074861;28;1201;-42
2022/08/21 04:35:55;;;;;;;;;;;;;;;25.95;nan;100841.81;5074841;28;933;-40
2022/08/21 04:38:22;;;;;;;;;;;;;;;25.94;nan;100847.28;5074443;28;1243;-40
2022/08/21 04:40:49;;;;;;;;;;;;;;;25.79;nan;100852.09;5074987;28;1257;-40
2022/08/21 04:43:16;;;;;;;;;;;;;;;25.82;nan;100843.00;5074800;28;1201;-47
2022/08/21 04:45:44;;;;;;;;;;;;;;;25.81;nan;100838.63;5075288;28;1137;-46
2022/08/21 04:48:12;;;;;;;;;;;;;;;25.79;nan;100851.25;5073877;28;1221;-46
2022/08/21 04:50:42;;;;;;;;;;;;;;;25.86;nan;100841.75;5074936;28;1914;-47
2022/08/21 04:53:11;;;;;;;;;;;;;;;25.84;nan;100849.88;5074479;28;1454;-48
2022/08/21 04:55:38;;;;;;;;;;;;;;;25.82;nan;100845.66;5074788;28;1148;-47
2022/08/21 04:58:07;;;;;;;;;;;;;;;25.90;nan;100845.88;5074371;28;1193;-47
2022/08/21 05:00:33;;;;;;;;;;;;;;;25.80;nan;100844.97;5070513;28;1205;-48
2022/08/21 05:03:01;;;;;;;;;;;;;;;25.73;nan;100841.97;5072911;28;1355;-47
2022/08/21 05:05:28;;;;;;;;;;;;;;;25.70;nan;100846.69;5065154;28;1486;-47
2022/08/21 05:07:57;;;;;;;;;;;;;;;25.69;nan;100843.19;5054416;28;1217;-47
2022/08/21 05:10:24;;;;;;;;;;;;;;;25.73;nan;100839.28;5054410;28;1902;-48
2022/08/21 05:12:50;;;;;;;;;;;;;;;25.83;nan;100839.34;5060704;28;1862;-47
2022/08/21 05:15:17;;;;;;;;;;;;;;;25.94;nan;100839.28;5074425;28;1023;-48
2022/08/21 05:17:44;;;;;;;;;;;;;;;25.85;nan;100843.59;5074380;28;1525;-48
2022/08/21 05:20:19;;;;;;;;;;;;;;;25.87;nan;100846.94;5074486;28;1033;-47
2022/08/21 05:22:46;;;;;;;;;;;;;;;25.81;nan;100851.97;5073979;28;1213;-47
2022/08/21 05:25:12;;;;;;;;;;;;;;;25.88;nan;100845.13;5074222;28;1035;-48
2022/08/21 05:27:39;;;;;;;;;;;;;;;25.79;nan;100854.78;5074071;28;1325;-37
2022/08/21 05:30:07;;;;;;;;;;;;;;;25.92;nan;100857.25;5074175;28;1910;-38
2022/08/21 05:32:34;;;;;;;;;;;;;;;25.83;nan;100858.88;5074051;28;1297;-38
2022/08/21 05:35:02;;;;;;;;;;;;;;;25.86;nan;100857.78;5074072;28;1114;-39
2022/08/21 05:37:28;;;;;;;;;;;;;;;25.73;nan;100862.44;5073883;28;1321;-38
2022/08/21 05:39:55;;;;;;;;;;;;;;;25.82;nan;100857.19;5074072;28;1032;-38
2022/08/21 05:42:42;;;;;;;;;;;;;;;25.74;nan;100864.16;5073820;28;2478;-38
2022/08/21 05:45:09;;;;;;;;;;;;;;;25.77;nan;100863.91;5074018;28;1055;-38
2022/08/21 05:47:35;;;;;;;;;;;;;;;25.75;nan;100865.81;5073618;28;1220;-38
2022/08/21 05:50:03;;;;;;;;;;;;;;;25.89;nan;100868.19;5074064;28;1981;-38
2022/08/21 05:52:30;;;;;;;;;;;;;;;25.87;nan;100870.16;5073498;28;1294;-38
2022/08/21 05:54:56;;;;;;;;;;;;;;;26.02;nan;100864.31;5073878;28;1418;-38
2022/08/21 05:57:25;;;;;;;;;;;;;;;25.94;nan;100866.81;5073709;28;1213;-38
2022/08/21 05:59:51;;;;;;;;;;;;;;;25.86;nan;100869.31;5073370;28;904;-38
2022/08/21 06:02:18;;;;;;;;;;;;;;;25.90;nan;100873.38;5073659;28;1204;-38
2022/08/21 06:04:45;;;;;;;;;;;;;;;25.92;nan;100873.25;5073755;28;1035;-41
2022/08/21 06:07:12;;;;;;;;;;;;;;;25.97;nan;100871.88;5073633;28;1283;-38
2022/08/21 06:09:39;;;;;;;;;;;;;;;26.07;nan;100863.94;5073546;28;1910;-38
2022/08/21 06:12:06;;;;;;;;;;;;;;;26.12;nan;100863.53;5072767;28;1576;-38
2022/08/21 06:14:33;;;;;;;;;;;;;;;26.12;nan;100875.06;5063792;28;1509;-38
2022/08/21 06:17:06;;;;;;;;;;;;;;;26.16;nan;100867.69;5053441;28;1234;-38
2022/08/21 06:19:33;;;;;;;;;;;;;;;26.22;nan;100878.69;5067307;28;1378;-38
2022/08/21 06:22:00;;;;;;;;;;;;;;;26.23;nan;100877.72;5073462;28;760;-38
2022/08/21 06:24:27;;;;;;;;;;;;;;;26.11;nan;100876.06;5058104;28;1225;-38
2022/08/21 06:26:54;;;;;;;;;;;;;;;26.19;nan;100876.28;5053151;28;816;-38
2022/08/21 06:29:21;;;;;;;;;;;;;;;26.05;nan;100879.25;5053495;28;1914;-38
2022/08/21 06:31:49;;;;;;;;;;;;;;;26.14;nan;100883.81;5061418;28;730;-39
2022/08/21 06:34:16;;;;;;;;;;;;;;;26.17;nan;100888.06;5072767;28;1319;-38
2022/08/21 06:36:43;;;;;;;;;;;;;;;26.18;nan;100879.06;5072920;28;969;-41
2022/08/21 06:39:10;;;;;;;;;;;;;;;26.05;nan;100889.94;5072780;28;1208;-38
2022/08/21 06:41:42;;;;;;;;;;;;;;;26.02;nan;100890.19;5072606;28;722;-38
2022/08/21 06:44:08;;;;;;;;;;;;;;;25.98;nan;100883.41;5073156;28;1225;-40
2022/08/21 06:46:35;;;;;;;;;;;;;;;25.94;nan;100887.31;5072535;28;828;-40
2022/08/21 06:49:02;;;;;;;;;;;;;;;25.96;nan;100885.38;5072703;28;1221;-39
2022/08/21 06:51:29;;;;;;;;;;;;;;;26.06;nan;100878.25;5073076;28;1973;-39
2022/08/21 06:53:55;;;;;;;;;;;;;;;26.08;nan;100879.00;5072959;28;1301;-38
2022/08/21 06:56:22;;;;;;;;;;;;;;;26.04;nan;100874.88;5073084;28;893;-38
2022/08/21 06:58:49;;;;;;;;;;;;;;;25.91;nan;100875.09;5072896;28;1473;-38
2022/08/21 07:01:16;;;;;;;;;;;;;;;25.86;nan;100873.78;5072887;28;819;-39
2022/08/21 07:03:43;;;;;;;;;;;;;;;25.99;nan;100869.09;5072807;28;1296;-40
2022/08/21 07:06:10;;;;;;;;;;;;;;;26.00;nan;100868.09;5072849;28;1030;-39
2022/08/21 07:08:38;;;;;;;;;;;;;;;26.03;nan;100859.84;5072613;28;1219;-39
2022/08/21 07:11:09;;;;;;;;;;;;;;;26.02;nan;100863.50;5073131;28;1977;-38
2022/08/21 07:13:35;;;;;;;;;;;;;;;26.06;nan;100865.75;5076095;28;1307;-38
2022/08/21 07:16:02;;;;;;;;;;;;;;;26.17;nan;100866.72;5076239;28;821;-38
2022/08/21 07:18:29;;;;;;;;;;;;;;;26.09;nan;100861.97;5076360;28;1197;-38
2022/08/21 07:20:56;;;;;;;;;;;;;;;26.11;nan;100860.03;5076175;28;749;-38
2022/08/21 07:23:28;;;;;;;;;;;;;;;26.05;nan;100852.56;5076220;28;1221;-38
2022/08/21 07:25:55;;;;;;;;;;;;;;;26.18;nan;100855.88;5076420;28;989;-38
2022/08/21 07:28:22;;;;;;;;;;;;;;;26.23;nan;100851.00;5076489;28;1213;-38
2022/08/21 07:30:53;;;;;;;;;;;;;;;26.35;nan;100849.94;5074800;28;1906;-38
2022/08/21 07:33:20;;;;;;;;;;;;;;;26.47;nan;100850.69;5076042;28;1217;-38
2022/08/21 07:35:46;;;;;;;;;;;;;;;26.45;nan;100847.28;5076367;28;1185;-37
2022/08/21 07:38:13;;;;;;;;;;;;;;;26.55;nan;100851.69;5075845;28;1211;-38
2022/08/21 07:40:40;;;;;;;;;;;;;;;26.51;nan;100852.94;5076285;28;1049;-38
2022/08/21 07:43:07;;;;;;;;;;;;;;;26.53;nan;100851.00;5076126;28;1201;-39
2022/08/21 07:45:33;;;;;;;;;;;;;;;26.71;nan;100851.19;5076352;28;1120;-39
2022/08/21 07:48:00;;;;;;;;;;;;;;;26.75;nan;100849.91;5075628;28;1209;-38
2022/08/21 07:50:27;;;;;;;;;;;;;;;26.79;nan;100851.34;5076070;28;1906;-37
2022/08/21 07:52:53;;;;;;;;;;;;;;;26.79;nan;100848.66;5075561;28;1240;-39
2022/08/21 07:55:21;;;;;;;;;;;;;;;26.83;nan;100851.94;5074124;28;1040;-39
2022/08/21 07:57:48;;;;;;;;;;;;;;;26.82;nan;100851.09;5075314;28;1197;-38
2022/08/21 08:00:17;;;;;;;;;;;;;;;26.86;nan;100846.34;5076096;28;1110;-38
2022/08/21 08:02:45;;;;;;;;;;;;;;;26.83;nan;100847.47;5075815;28;1213;-38
2022/08/21 08:05:12;;;;;;;;;;;;;;;26.86;nan;100854.34;5075704;28;910;-38
2022/08/21 08:07:39;;;;;;;;;;;;;;;26.76;nan;100850.75;5075493;28;1311;-38
2022/08/21 08:10:07;;;;;;;;;;;;;;;26.81;nan;100851.25;5075652;28;1918;-38
2022/08/21 08:12:34;;;;;;;;;;;;;;;26.72;nan;100850.19;5074999;28;1581;-38
2022/08/21 08:15:02;;;;;;;;;;;;;;;26.78;nan;100851.50;5075402;28;1034;-39
2022/08/21 08:17:29;;;;;;;;;;;;;;;26.79;nan;100859.34;5075376;28;1302;-39
2022/08/21 08:19:56;;;;;;;;;;;;;;;26.75;nan;100851.75;5075191;28;958;-38
2022/08/21 08:22:23;;;;;;;;;;;;;;;26.69;nan;100847.78;5074807;28;1200;-38
2022/08/21 08:24:51;;;;;;;;;;;;;;;26.74;nan;100848.25;5075263;28;977;-37
2022/08/21 08:27:18;;;;;;;;;;;;;;;26.73;nan;100851.03;5075120;28;1299;-38
2022/08/21 08:29:45;;;;;;;;;;;;;;;26.77;nan;100857.81;5074422;28;1989;-38
2022/08/21 08:32:12;;;;;;;;;;;;;;;26.72;nan;100846.69;5074921;28;1199;-38
2022/08/21 08:34:39;;;;;;;;;;;;;;;26.70;nan;100835.28;5075192;28;1010;-39
2022/08/21 08:37:07;;;;;;;;;;;;;;;26.68;nan;100838.09;5075060;28;976;-38
2022/08/21 08:39:34;;;;;;;;;;;;;;;26.75;nan;100838.41;5074608;28;1553;-38
2022/08/21 08:42:16;;;;;;;;;;;;;;;26.79;nan;100842.47;5074554;28;747;-38
2022/08/21 08:45:00;;;;;;;;;;;;;;;26.79;nan;100837.97;5074669;28;1024;-39
2022/08/21 08:47:28;;;;;;;;;;;;;;;26.81;nan;100840.56;5074382;28;1201;-38
2022/08/21 08:50:02;;;;;;;;;;;;;;;26.83;nan;100836.75;5074808;28;1910;-38
2022/08/21 08:52:33;;;;;;;;;;;;;;;26.82;nan;100832.41;5074563;28;1268;-38
2022/08/21 08:55:06;;;;;;;;;;;;;;;26.83;nan;100833.25;5074522;28;1113;-38
2022/08/21 08:57:33;;;;;;;;;;;;;;;26.90;nan;100823.69;5073826;28;1291;-39
2022/08/21 09:00:01;;;;;;;;;;;;;;;26.84;nan;100835.75;5074578;28;1121;-38
2022/08/21 09:02:28;;;;;;;;;;;;;;;26.85;nan;100836.63;5073966;28;1584;-38
2022/08/21 09:04:56;;;;;;;;;;;;;;;26.88;nan;100836.34;5073948;28;927;-40
2022/08/21 09:07:28;;;;;;;;;;;;;;;26.88;nan;100845.22;5073818;28;1220;-37
2022/08/21 09:10:01;;;;;;;;;;;;;;;26.97;nan;100828.34;5071242;28;1906;-38
2022/08/21 09:12:40;;;;;;;;;;;;;;;26.98;nan;100826.53;5073559;28;1429;-39
2022/08/21 09:15:09;;;;;;;;;;;;;;;27.00;nan;100832.56;5074293;28;1111;-39
2022/08/21 09:17:36;;;;;;;;;;;;;;;26.99;nan;100828.22;5073834;28;1626;-39
2022/08/21 09:20:05;;;;;;;;;;;;;;;27.01;nan;100832.44;5073975;28;1039;-38
2022/08/21 09:22:36;;;;;;;;;;;;;;;27.06;nan;100835.53;5073893;28;1310;-40
2022/08/21 09:25:14;;;;;;;;;;;;;;;27.06;nan;100829.34;5073431;28;1600;-34
2022/08/21 09:27:41;;;;;;;;;;;;;;;27.08;nan;100838.06;5073142;28;1272;-34
2022/08/21 09:30:09;;;;;;;;;;;;;;;27.10;nan;100833.44;5073716;28;1914;-34
2022/08/21 09:32:37;;;;;;;;;;;;;;;27.20;nan;100820.91;5073326;28;1471;-34
2022/08/21 09:35:07;;;;;;;;;;;;;;;27.28;nan;100818.38;5072983;28;1131;-34
2022/08/21 09:37:45;;;;;;;;;;;;;;;27.37;nan;100825.56;5073054;28;1209;-34
2022/08/21 09:40:19;;;;;;;;;;;;;;;27.46;nan;100835.44;5068558;28;1173;-38
2022/08/21 09:42:53;;;;;;;;;;;;;;;27.58;nan;100836.13;5072754;28;1294;-41
2022/08/21 09:45:20;;;;;;;;;;;;;;;27.63;nan;100832.03;5055770;28;1141;-40
2022/08/21 09:47:47;;;;;;;;;;;;;;;27.63;nan;100831.22;5052835;28;1294;-39
2022/08/21 09:50:14;;;;;;;;;;;;;;;27.76;nan;100833.56;5052818;28;1906;-42
2022/08/21 09:52:49;;;;;;;;;;;;;;;27.82;nan;100819.59;5052649;28;1199;-40
2022/08/21 09:58:17;;;;;;;;;;;;;;;27.83;nan;100813.28;5052809;28;1265;-41
2022/08/21 10:00:44;;;;;;;;;;;;;;;27.78;nan;100816.41;5053092;28;1246;-43
2022/08/21 10:03:21;;;;;;;;;;;;;;;27.93;nan;100809.59;5053145;28;1292;-41
2022/08/21 10:05:56;;;;;;;;;;;;;;;27.89;nan;100810.03;5053176;28;1198;-43
2022/08/21 10:08:24;;;;;;;;;;;;;;;27.79;nan;100799.34;5052205;28;1381;-41
2022/08/21 10:10:52;;;;;;;;;;;;;;;27.97;nan;100807.44;5052567;28;1981;-35
2022/08/21 10:13:28;;;;;;;;;;;;;;;28.03;nan;100793.47;5052423;28;1354;-37
2022/08/21 10:16:00;;;;;;;;;;;;;;;28.19;nan;100797.28;5053164;28;1228;-41
2022/08/21 10:18:30;;;;;;;;;;;;;;;28.08;nan;100780.56;5052439;28;1241;-43
2022/08/21 10:21:02;;;;;;;;;;;;;;;27.94;nan;100783.66;5057637;28;1509;-42
2022/08/21 10:23:52;;;;;;;;;;;;;;;28.06;nan;100782.50;5069158;28;1292;-40
2022/08/21 10:26:25;;;;;;;;;;;;;;;28.02;nan;100781.09;5072242;28;1445;-40
2022/08/21 10:28:51;;;;;;;;;;;;;;;27.98;nan;100769.00;5067416;28;1279;-44
2022/08/21 10:31:27;;;;;;;;;;;;;;;27.97;nan;100778.84;5064090;28;1972;-41
2022/08/21 10:34:02;;;;;;;;;;;;;;;28.10;nan;100767.84;5069887;28;1371;-39
2022/08/21 10:36:40;;;;;;;;;;;;;;;28.25;nan;100779.75;5062480;28;1568;-41
2022/08/21 10:39:19;;;;;;;;;;;;;;;28.31;nan;100773.81;5061724;28;1563;-44
2022/08/21 10:42:20;;;;;;;;;;;;;;;28.25;nan;100777.09;5056135;28;1329;-43
2022/08/21 10:45:00;;;;;;;;;;;;;;;28.00;nan;100772.34;5058276;28;1066;-39
2022/08/21 10:47:33;;;;;;;;;;;;;;;28.07;nan;100770.81;5055098;28;1253;-41
2022/08/21 10:50:09;;;;;;;;;;;;;;;28.07;nan;100773.50;5062007;28;1140;-38
2022/08/21 10:52:36;;;;;;;;;;;;;;;28.20;nan;100763.31;5055726;28;1910;-43
2022/08/21 10:55:12;;;;;;;;;;;;;;;28.52;nan;100760.16;5060767;28;1746;-39
2022/08/21 10:58:07;;;;;;;;;;;;;;;28.58;nan;100756.88;5066991;28;1252;-44
2022/08/21 11:00:40;;;;;;;;;;;;;;;28.55;nan;100755.34;5051464;28;1422;-41
2022/08/21 11:03:10;;;;;;;;;;;;;;;28.38;nan;100755.31;5073827;28;1228;-42
2022/08/21 11:06:02;;;;;;;;;;;;;;;28.48;nan;100759.63;5056595;28;1224;-44
2022/08/21 11:08:33;;;;;;;;;;;;;;;28.74;nan;100755.25;5038746;28;1666;-41
2022/08/21 11:11:04;;;;;;;;;;;;;;;28.98;nan;100751.13;5055219;28;1907;-43
2022/08/21 11:13:45;;;;;;;;;;;;;;;28.95;nan;100749.59;5053575;28;1301;-39
2022/08/21 11:16:14;;;;;;;;;;;;;;;29.01;nan;100748.13;5055587;28;763;-43
2022/08/21 11:18:43;;;;;;;;;;;;;;;28.84;nan;100744.47;5055073;28;1291;-43
2022/08/21 11:21:19;;;;;;;;;;;;;;;28.50;nan;100738.88;5070223;28;793;-42
2022/08/21 11:23:46;;;;;;;;;;;;;;;28.51;nan;100729.88;5073372;28;1399;-45
2022/08/21 11:26:32;;;;;;;;;;;;;;;28.68;nan;100725.53;5075663;28;893;-41
2022/08/21 11:29:03;;;;;;;;;;;;;;;28.94;nan;100731.00;5063702;28;1216;-43
2022/08/21 11:32:00;;;;;;;;;;;;;;;28.87;nan;100719.19;5055099;28;1907;-42
2022/08/21 11:34:47;;;;;;;;;;;;;;;29.01;nan;100729.34;5053868;28;1296;-38
2022/08/21 11:37:34;;;;;;;;;;;;;;;29.01;nan;100718.63;5060492;28;1378;-45
2022/08/21 11:40:03;;;;;;;;;;;;;;;28.63;nan;100717.94;5051808;28;1086;-35
2022/08/21 11:42:50;;;;;;;;;;;;;;;28.62;nan;100710.03;5055120;28;1270;-36
2022/08/21 11:45:31;;;;;;;;;;;;;;;28.71;nan;100706.47;5058429;28;1433;-37
2022/08/21 11:48:06;;;;;;;;;;;;;;;28.81;nan;100709.06;5055086;28;1402;-37
2022/08/21 11:50:36;;;;;;;;;;;;;;;29.13;nan;100712.03;5060949;28;1910;-37
2022/08/21 11:53:08;;;;;;;;;;;;;;;29.09;nan;100708.00;5054870;28;1299;-37
2022/08/21 11:55:35;;;;;;;;;;;;;;;28.88;nan;100708.28;5071121;28;1155;-37
2022/08/21 11:58:02;;;;;;;;;;;;;;;28.67;nan;100705.91;5057350;28;1286;-54
2022/08/21 12:00:32;;;;;;;;;;;;;;;28.57;nan;100697.09;5055458;28;1047;-52
2022/08/21 12:03:12;;;;;;;;;;;;;;;28.87;nan;100693.22;5054531;28;1306;-53
2022/08/21 12:05:40;;;;;;;;;;;;;;;28.83;nan;100690.97;5064123;28;1169;-52
2022/08/21 12:08:10;;;;;;;;;;;;;;;28.86;nan;100693.34;5070586;28;1331;-52
2022/08/21 12:10:39;;;;;;;;;;;;;;;28.98;nan;100694.81;5055356;28;1946;-49
2022/08/21 12:13:26;;;;;;;;;;;;;;;29.02;nan;100685.47;5054488;28;1360;-49
2022/08/21 12:16:09;;;;;;;;;;;;;;;28.58;nan;100690.72;5053726;28;850;-53
2022/08/21 12:18:37;;;;;;;;;;;;;;;28.92;nan;100687.38;5054610;28;1223;-52
2022/08/21 12:21:18;;;;;;;;;;;;;;;29.17;nan;100678.53;5054764;28;764;-50
2022/08/21 12:24:08;;;;;;;;;;;;;;;29.12;nan;100675.50;5054723;28;1382;-53
2022/08/21 12:26:47;;;;;;;;;;;;;;;29.01;nan;100678.41;5049514;28;1211;-53
2022/08/21 12:29:21;;;;;;;;;;;;;;;29.06;nan;100676.13;5054681;28;1272;-55
2022/08/21 12:31:49;;;;;;;;;;;;;;;28.90;nan;100666.09;5054587;28;1967;-52
2022/08/21 12:34:17;;;;;;;;;;;;;;;29.16;nan;100675.00;5054474;28;1229;-50
2022/08/21 12:36:46;;;;;;;;;;;;;;;29.32;nan;100676.16;5054256;28;1431;-53
2022/08/21 12:39:22;;;;;;;;;;;;;;;29.37;nan;100677.34;5054435;28;1296;-54
2022/08/21 12:41:51;;;;;;;;;;;;;;;29.03;nan;100671.06;5057077;28;1854;-54
2022/08/21 12:44:23;;;;;;;;;;;;;;;28.86;nan;100669.22;5060348;28;1561;-52
2022/08/21 12:46:49;;;;;;;;;;;;;;;29.35;nan;100663.28;5058577;28;859;-36
2022/08/21 12:49:28;;;;;;;;;;;;;;;29.74;nan;100671.69;5060264;28;1294;-38
2022/08/21 12:51:54;;;;;;;;;;;;;;;29.59;nan;100668.78;5065426;28;1980;-37
2022/08/21 12:54:22;;;;;;;;;;;;;;;29.59;nan;100668.78;5070152;28;1196;-37
2022/08/21 12:56:56;;;;;;;;;;;;;;;29.65;nan;100662.78;5073603;28;780;-37
2022/08/21 12:59:23;;;;;;;;;;;;;;;29.41;nan;100659.09;5059109;28;1375;-38
2022/08/21 13:01:51;;;;;;;;;;;;;;;29.41;nan;100654.59;5060854;28;1627;-38
2022/08/21 13:04:21;;;;;;;;;;;;;;;29.42;nan;100655.44;5069929;28;1291;-38
2022/08/21 13:06:51;;;;;;;;;;;;;;;29.39;nan;100661.13;5073041;28;769;-36
2022/08/21 13:09:20;;;;;;;;;;;;;;;29.46;nan;100651.41;5070449;28;1323;-34
2022/08/21 13:11:48;;;;;;;;;;;;;;;29.65;nan;100656.56;5075956;28;1906;-36
2022/08/21 13:14:33;;;;;;;;;;;;;;;29.65;nan;100649.34;5070240;28;1451;-36
2022/08/21 13:17:03;;;;;;;;;;;;;;;29.53;nan;100653.31;5073350;28;727;-36
2022/08/21 13:19:31;;;;;;;;;;;;;;;29.47;nan;100647.75;5071059;28;1226;-36
2022/08/21 13:21:58;;;;;;;;;;;;;;;29.37;nan;100653.22;5066798;28;774;-36
2022/08/21 13:24:27;;;;;;;;;;;;;;;29.36;nan;100646.19;5072501;28;1260;-38